Terminal Aerodrome Forecast
Issued by NWS La Crosse, WI

Home | Current Version | Previous Version | Text Only | Print | Product List | Glossary On
Versions: 1 2 3 4 5 6 7 8 9 10 11 12 13 14 15 16 17 18 19 20 21 22 23 24 25 26 27 28 29 30 31 32 33 34 35 36 37 38 39 40 41 42
000
FTUS43 KARX 300800 AAA
TAFLSE
TAF AMD
KLSE 300800Z 3008/0106 34005KT 2SM BR BKN005
      TEMPO 3009/3013 1/2SM FG BKN002
     FM301400 34007KT P6SM BKN010
     FM301700 34009KT P6SM SCT025
     FM010100 VRB03KT P6SM SCT250=

USA.gov is the U.S. government's official web portal to all federal, state and local government web resources and services.